createdAt,value
2023-02-26T00:01:32.095Z,74.92
2023-02-26T00:04:02.908Z,75.79
2023-02-26T00:06:33.987Z,77.38
2023-02-26T00:09:01.396Z,76.58
2023-02-26T00:11:29.230Z,76.54
2023-02-26T00:13:56.778Z,75.91
2023-02-26T00:16:34.861Z,75.83
2023-02-26T00:19:05.676Z,76.66
2023-02-26T00:21:34.118Z,77.01
2023-02-26T00:24:02.414Z,77.14
2023-02-26T00:26:34.597Z,75.91
2023-02-26T00:29:03.036Z,76.47
2023-02-26T00:31:30.538Z,75.75
2023-02-26T00:33:58.646Z,76.12
2023-02-26T00:36:50.628Z,76.65
2023-02-26T00:39:43.935Z,76.13
2023-02-26T00:42:11.434Z,76.44
2023-02-26T00:44:40.136Z,76.02
2023-02-26T00:47:17.985Z,75.78
2023-02-26T00:50:25.262Z,75.51
2023-02-26T00:53:21.313Z,75.29
2023-02-26T00:55:48.367Z,75.75
2023-02-26T00:58:15.440Z,76.11
2023-02-26T01:00:42.557Z,75.47
2023-02-26T01:03:11.316Z,75.48
2023-02-26T01:05:38.941Z,76.46
2023-02-26T01:08:15.262Z,76.08
2023-02-26T01:10:42.654Z,76.73
2023-02-26T01:13:10.097Z,76.26
2023-02-26T01:15:37.588Z,76.32
2023-02-26T01:18:18.988Z,76.92
2023-02-26T01:20:54.685Z,76.23
2023-02-26T01:23:25.884Z,75.82
2023-02-26T01:26:10.842Z,76.74
2023-02-26T01:28:38.229Z,75.92
2023-02-26T01:31:14.898Z,76.84
2023-02-26T01:33:51.410Z,76.66
2023-02-26T01:36:23.662Z,76.33
2023-02-26T01:39:12.006Z,76.93
2023-02-26T01:41:53.455Z,76.47
2023-02-26T01:44:20.521Z,78.00
2023-02-26T01:46:53.614Z,78.44
2023-02-26T01:49:21.405Z,77.45
2023-02-26T01:52:02.514Z,77.08
2023-02-26T01:54:34.414Z,78.03
2023-02-26T01:57:12.589Z,77.66
2023-02-26T01:59:51.715Z,77.27
2023-02-26T02:02:22.096Z,78.16
2023-02-26T02:04:50.371Z,77.43
2023-02-26T02:07:18.818Z,77.31
2023-02-26T02:09:47.764Z,77.97
2023-02-26T02:12:29.862Z,76.98
2023-02-26T02:15:03.853Z,78.16
2023-02-26T02:17:50.064Z,77.49
2023-02-26T02:20:35.644Z,77.16
2023-02-26T02:23:11.082Z,77.41
2023-02-26T02:26:12.573Z,77.65
2023-02-26T02:28:58.674Z,77.15
2023-02-26T02:31:28.590Z,78.18
2023-02-26T02:34:04.740Z,77.63
2023-02-26T02:36:45.393Z,77.51
2023-02-26T02:39:33.292Z,78.09
2023-02-26T02:42:09.272Z,79.00
2023-02-26T02:44:40.112Z,78.13
2023-02-26T02:47:11.344Z,78.56
2023-02-26T02:49:46.677Z,78.68
2023-02-26T02:52:17.923Z,78.29
2023-02-26T02:54:56.626Z,77.58
2023-02-26T02:57:29.041Z,77.95
2023-02-26T03:00:00.667Z,78.32
2023-02-26T03:02:49.680Z,77.40
2023-02-26T03:05:17.408Z,76.89
2023-02-26T03:07:52.373Z,77.22
2023-02-26T03:10:19.728Z,77.29
2023-02-26T03:12:46.937Z,77.16
2023-02-26T03:15:15.680Z,77.12
2023-02-26T03:18:03.389Z,77.25
2023-02-26T03:20:40.908Z,77.41
2023-02-26T03:23:21.566Z,77.60
2023-02-26T03:25:55.419Z,77.65
2023-02-26T03:28:38.559Z,78.65
2023-02-26T03:31:18.091Z,77.56
2023-02-26T03:33:59.199Z,77.53
2023-02-26T03:36:30.762Z,77.84
2023-02-26T03:39:21.116Z,77.96
2023-02-26T03:41:51.819Z,78.04
2023-02-26T03:44:35.610Z,78.24
2023-02-26T03:47:07.759Z,78.34
2023-02-26T03:49:44.581Z,77.80
2023-02-26T03:52:12.870Z,77.40
2023-02-26T03:54:53.621Z,77.32
2023-02-26T03:57:39.815Z,77.47
2023-02-26T04:00:38.302Z,78.37
2023-02-26T04:03:19.180Z,77.96
2023-02-26T04:05:49.861Z,77.11
2023-02-26T04:08:17.095Z,77.79
2023-02-26T04:10:52.133Z,77.06
2023-02-26T04:13:19.761Z,77.72
2023-02-26T04:15:47.262Z,77.76
2023-02-26T04:18:14.298Z,77.99
2023-02-26T04:20:41.637Z,77.63
2023-02-26T04:23:10.017Z,77.32
2023-02-26T04:25:37.349Z,77.77
2023-02-26T04:28:05.373Z,77.54
2023-02-26T04:30:33.572Z,77.61
2023-02-26T04:33:02.043Z,77.08
2023-02-26T04:35:29.661Z,77.41
2023-02-26T04:37:57.890Z,77.38
2023-02-26T04:40:25.187Z,77.45
2023-02-26T04:42:54.579Z,77.39
2023-02-26T04:45:25.163Z,77.04
2023-02-26T04:47:52.708Z,76.67
2023-02-26T04:50:20.216Z,77.00
2023-02-26T04:52:51.585Z,77.22
2023-02-26T04:55:19.238Z,76.61
2023-02-26T04:57:46.393Z,77.13
2023-02-26T05:00:15.490Z,77.63
2023-02-26T05:02:42.663Z,76.60
2023-02-26T05:05:09.978Z,77.00
2023-02-26T05:07:37.127Z,77.22
2023-02-26T05:10:06.323Z,77.14
2023-02-26T05:12:33.873Z,76.79
2023-02-26T05:15:02.009Z,77.44
2023-02-26T05:17:30.653Z,76.80
2023-02-26T05:19:58.287Z,76.86
2023-02-26T05:22:25.560Z,76.97
2023-02-26T05:24:52.820Z,76.72
2023-02-26T05:27:20.070Z,76.72
2023-02-26T05:29:57.065Z,76.82
2023-02-26T05:32:24.377Z,76.74
2023-02-26T05:34:51.556Z,76.13
2023-02-26T05:37:22.150Z,76.55
2023-02-26T05:39:49.341Z,76.88
2023-02-26T05:42:18.707Z,76.79
2023-02-26T05:44:45.816Z,75.97
2023-02-26T05:47:13.238Z,75.76
2023-02-26T05:49:40.597Z,76.43
2023-02-26T05:52:07.837Z,76.11
2023-02-26T05:54:35.089Z,75.57
2023-02-26T05:57:02.588Z,75.76
2023-02-26T05:59:29.886Z,75.80
2023-02-26T06:01:57.330Z,75.72
2023-02-26T06:04:24.812Z,75.75
2023-02-26T06:06:51.934Z,75.18
2023-02-26T06:09:19.071Z,75.58
2023-02-26T06:11:46.202Z,75.77
2023-02-26T06:14:13.389Z,75.46
2023-02-26T06:16:40.593Z,75.07
2023-02-26T06:19:07.825Z,74.47
2023-02-26T06:21:35.133Z,74.48
2023-02-26T06:24:02.416Z,74.66
2023-02-26T06:26:29.856Z,73.78
2023-02-26T06:28:57.588Z,74.09
2023-02-26T06:31:24.821Z,73.39
2023-02-26T06:33:51.964Z,73.13
2023-02-26T06:36:19.210Z,73.10
2023-02-26T06:38:48.699Z,72.91
2023-02-26T06:41:15.860Z,72.84
2023-02-26T06:43:43.182Z,72.59
2023-02-26T06:46:12.473Z,72.51
2023-02-26T06:48:39.615Z,72.30
2023-02-26T06:51:07.642Z,71.94
2023-02-26T06:53:35.080Z,71.48
2023-02-26T06:56:03.526Z,71.73
2023-02-26T06:58:30.886Z,71.18
2023-02-26T07:00:58.253Z,70.54
2023-02-26T07:03:25.670Z,70.62
2023-02-26T07:05:57.223Z,70.64
2023-02-26T07:08:24.405Z,70.61
2023-02-26T07:10:51.719Z,70.53
2023-02-26T07:13:18.952Z,70.34
2023-02-26T07:15:46.418Z,69.86
2023-02-26T07:18:13.859Z,69.42
2023-02-26T07:20:42.944Z,69.68
2023-02-26T07:23:10.020Z,69.19
2023-02-26T07:25:37.758Z,70.06
2023-02-26T07:28:05.179Z,69.81
2023-02-26T07:30:32.877Z,69.73
2023-02-26T07:33:00.501Z,69.56
2023-02-26T07:35:27.785Z,69.10
2023-02-26T07:37:54.865Z,68.91
2023-02-26T07:40:22.049Z,68.44
2023-02-26T07:42:49.193Z,68.35
2023-02-26T07:45:18.720Z,68.55
2023-02-26T07:47:45.828Z,67.97
2023-02-26T07:50:13.024Z,68.76
2023-02-26T07:52:41.014Z,68.23
2023-02-26T07:55:09.600Z,68.51
2023-02-26T07:57:36.925Z,68.54
2023-02-26T08:00:07.661Z,67.71
2023-02-26T08:02:39.567Z,67.77
2023-02-26T08:05:07.046Z,67.92
2023-02-26T08:07:34.127Z,67.30
2023-02-26T08:10:01.255Z,67.27
2023-02-26T08:12:30.819Z,66.59
2023-02-26T08:14:57.926Z,66.32
2023-02-26T08:17:25.182Z,66.90
2023-02-26T08:19:52.386Z,66.60
2023-02-26T08:22:20.098Z,66.28
2023-02-26T08:24:47.111Z,66.41
2023-02-26T08:27:14.195Z,65.32
2023-02-26T08:29:41.430Z,65.28
2023-02-26T08:32:09.549Z,65.06
2023-02-26T08:34:37.378Z,65.44
2023-02-26T08:37:04.605Z,65.54
2023-02-26T08:39:35.344Z,65.21
2023-02-26T08:42:02.426Z,65.27
2023-02-26T08:44:32.281Z,63.88
2023-02-26T08:46:59.965Z,64.85
2023-02-26T08:49:27.594Z,64.23
2023-02-26T08:51:54.795Z,64.90
2023-02-26T08:54:22.040Z,62.92
2023-02-26T08:56:49.162Z,60.74
2023-02-26T08:59:16.509Z,57.27
2023-02-26T09:01:43.685Z,54.61
2023-02-26T09:04:10.821Z,51.04
2023-02-26T09:06:38.376Z,48.02
2023-02-26T09:09:06.769Z,48.79
2023-02-26T09:11:33.887Z,48.18
2023-02-26T09:14:03.586Z,48.87
2023-02-26T09:16:32.282Z,48.72
2023-02-26T09:19:02.595Z,50.25
2023-02-26T09:21:30.720Z,49.98
2023-02-26T09:24:00.436Z,50.92
2023-02-26T09:26:28.007Z,51.64
2023-02-26T09:28:55.541Z,52.26
2023-02-26T09:31:26.166Z,52.86
2023-02-26T09:33:53.606Z,53.22
2023-02-26T09:36:21.117Z,53.75
2023-02-26T09:38:48.281Z,54.16
2023-02-26T09:41:22.125Z,54.29
2023-02-26T09:43:58.200Z,54.51
2023-02-26T09:46:28.035Z,54.76
2023-02-26T09:49:12.555Z,54.88
2023-02-26T09:51:40.208Z,54.59
2023-02-26T09:54:19.231Z,55.34
2023-02-26T09:56:47.558Z,54.83
2023-02-26T09:59:14.912Z,54.94
2023-02-26T10:02:09.494Z,54.82
2023-02-26T10:04:47.967Z,55.20
2023-02-26T10:07:29.909Z,54.37
2023-02-26T10:10:40.031Z,55.35
2023-02-26T10:13:27.849Z,54.84
2023-02-26T10:16:06.129Z,56.15
2023-02-26T10:18:40.386Z,55.32
2023-02-26T10:21:22.894Z,56.12
2023-02-26T10:23:57.234Z,56.58
2023-02-26T10:26:30.115Z,56.49
2023-02-26T10:29:06.758Z,56.84
2023-02-26T10:31:40.491Z,56.96
2023-02-26T10:34:33.104Z,56.50
2023-02-26T10:37:12.233Z,56.70
2023-02-26T10:40:01.959Z,56.36
2023-02-26T10:42:38.109Z,56.22
2023-02-26T10:45:29.926Z,55.00
2023-02-26T10:48:28.523Z,55.11
2023-02-26T10:50:58.575Z,55.94
2023-02-26T10:53:28.316Z,55.94
2023-02-26T10:56:14.848Z,56.02
2023-02-26T10:58:42.075Z,55.99
2023-02-26T11:01:18.389Z,55.52
2023-02-26T11:03:51.362Z,55.94
2023-02-26T11:06:31.425Z,56.05
2023-02-26T11:09:01.301Z,56.56
2023-02-26T11:11:47.679Z,56.17
2023-02-26T11:14:16.098Z,56.32
2023-02-26T11:16:52.696Z,56.20
2023-02-26T11:19:27.638Z,56.36
2023-02-26T11:21:55.542Z,56.27
2023-02-26T11:24:40.777Z,55.41
2023-02-26T11:27:14.509Z,55.72
2023-02-26T11:29:46.729Z,56.04
2023-02-26T11:32:20.726Z,56.24
2023-02-26T11:34:50.104Z,56.04
2023-02-26T11:37:23.232Z,55.31
2023-02-26T11:39:58.182Z,55.48
2023-02-26T11:42:30.543Z,55.81
2023-02-26T11:44:58.499Z,55.73
2023-02-26T11:47:30.024Z,55.09
2023-02-26T11:50:04.916Z,55.25
2023-02-26T11:52:43.363Z,54.58
2023-02-26T11:55:30.034Z,54.55
2023-02-26T11:57:57.615Z,54.76
2023-02-26T12:00:26.254Z,53.81
2023-02-26T12:03:02.401Z,53.80
2023-02-26T12:05:29.996Z,53.82
2023-02-26T12:07:57.481Z,54.31
2023-02-26T12:10:50.694Z,53.50
2023-02-26T12:13:26.832Z,53.77
2023-02-26T12:16:15.083Z,53.66
2023-02-26T12:18:55.365Z,54.04
2023-02-26T12:21:37.894Z,53.74
2023-02-26T12:24:17.196Z,54.23
2023-02-26T12:26:53.297Z,54.20
2023-02-26T12:29:41.464Z,54.59
2023-02-26T12:32:30.442Z,54.96
2023-02-26T12:35:06.552Z,54.54
2023-02-26T12:37:47.080Z,55.47
2023-02-26T12:40:51.845Z,55.77
2023-02-26T12:43:40.082Z,56.02
2023-02-26T12:46:19.321Z,56.08
2023-02-26T12:49:04.851Z,56.09
2023-02-26T12:51:51.803Z,57.16
2023-02-26T12:54:40.752Z,56.77
2023-02-26T12:57:14.416Z,57.21
2023-02-26T13:00:13.620Z,57.64
2023-02-26T13:02:46.342Z,57.01
2023-02-26T13:05:40.262Z,57.61
2023-02-26T13:08:33.605Z,57.58
2023-02-26T13:11:27.191Z,58.75
2023-02-26T13:14:03.111Z,57.76
2023-02-26T13:16:50.695Z,59.55
2023-02-26T13:19:26.497Z,58.36
2023-02-26T13:21:59.978Z,58.77
2023-02-26T13:24:40.377Z,58.71
2023-02-26T13:27:09.985Z,58.82
2023-02-26T13:29:44.365Z,58.74
2023-02-26T13:32:25.371Z,58.21
2023-02-26T13:35:00.330Z,57.64
2023-02-26T13:37:46.005Z,57.90
2023-02-26T13:40:34.232Z,57.81
2023-02-26T13:43:23.858Z,57.33
2023-02-26T13:46:08.921Z,57.81
2023-02-26T13:48:54.626Z,57.51
2023-02-26T13:51:25.163Z,57.72
2023-02-26T13:54:01.942Z,57.94
2023-02-26T13:56:32.144Z,58.49
2023-02-26T13:59:26.902Z,58.14
2023-02-26T14:02:21.279Z,58.25
2023-02-26T14:04:51.539Z,58.34
2023-02-26T14:07:56.728Z,58.46
2023-02-26T14:10:33.189Z,58.74
2023-02-26T14:13:12.234Z,59.29
2023-02-26T14:15:53.506Z,59.30
2023-02-26T14:18:30.268Z,59.66
2023-02-26T14:21:38.716Z,59.28
2023-02-26T14:24:38.419Z,59.67
2023-02-26T14:27:16.194Z,59.27
2023-02-26T14:30:18.245Z,59.14
2023-02-26T14:32:49.171Z,58.72
2023-02-26T14:35:19.318Z,59.13
2023-02-26T14:38:09.192Z,58.85
2023-02-26T14:40:49.866Z,58.77
2023-02-26T14:43:27.973Z,58.80
2023-02-26T14:45:55.293Z,58.82
2023-02-26T14:48:29.737Z,58.76
2023-02-26T14:51:08.923Z,58.85
2023-02-26T14:54:08.581Z,58.68
2023-02-26T14:57:00.121Z,57.63
2023-02-26T14:59:50.753Z,56.95
2023-02-26T15:02:47.383Z,57.91
2023-02-26T15:05:24.562Z,57.44
2023-02-26T15:08:06.459Z,57.64
2023-02-26T15:10:45.927Z,57.34
2023-02-26T15:13:50.547Z,56.97
2023-02-26T15:16:33.956Z,57.24
2023-02-26T15:19:04.081Z,57.16
2023-02-26T15:21:33.863Z,57.38
2023-02-26T15:24:01.867Z,57.38
2023-02-26T15:26:33.808Z,57.74
2023-02-26T15:29:05.368Z,58.04
2023-02-26T15:31:37.645Z,57.86
2023-02-26T15:34:04.847Z,57.96
2023-02-26T15:36:32.478Z,57.78
2023-02-26T15:39:01.826Z,57.89
2023-02-26T15:41:31.263Z,57.34
2023-02-26T15:44:06.901Z,58.01
2023-02-26T15:46:47.567Z,58.07
2023-02-26T15:49:37.052Z,58.47
2023-02-26T15:52:06.886Z,57.80
2023-02-26T15:54:43.831Z,58.80
2023-02-26T15:57:13.737Z,58.24
2023-02-26T15:59:47.646Z,58.38
2023-02-26T16:02:17.065Z,58.61
2023-02-26T16:04:44.535Z,58.45
2023-02-26T16:07:13.623Z,58.64
2023-02-26T16:09:48.098Z,59.39
2023-02-26T16:12:18.451Z,59.73
2023-02-26T16:14:59.059Z,60.88
2023-02-26T16:17:32.522Z,60.59
2023-02-26T16:20:03.090Z,60.69
2023-02-26T16:22:37.876Z,61.42
2023-02-26T16:25:40.699Z,61.29
2023-02-26T16:28:21.087Z,61.15
2023-02-26T16:30:54.338Z,60.75
2023-02-26T16:33:24.728Z,60.72
2023-02-26T16:36:04.492Z,61.00
2023-02-26T16:38:54.052Z,60.70
2023-02-26T16:41:28.032Z,60.53
2023-02-26T16:43:58.010Z,60.55
2023-02-26T16:46:44.570Z,60.77
2023-02-26T16:49:26.431Z,60.26
2023-02-26T16:51:56.387Z,60.24
2023-02-26T16:54:35.657Z,60.11
2023-02-26T16:57:24.317Z,60.83
2023-02-26T16:59:59.116Z,60.75
2023-02-26T17:02:34.225Z,60.34
2023-02-26T17:05:05.932Z,60.55
2023-02-26T17:07:35.738Z,60.35
2023-02-26T17:10:10.582Z,60.31
2023-02-26T17:12:48.400Z,60.28
2023-02-26T17:15:28.129Z,59.95
2023-02-26T17:17:57.020Z,59.97
2023-02-26T17:20:28.934Z,59.45
2023-02-26T17:22:57.648Z,60.22
2023-02-26T17:25:29.409Z,59.70
2023-02-26T17:27:57.352Z,59.15
2023-02-26T17:30:25.861Z,59.77
2023-02-26T17:32:53.270Z,59.50
2023-02-26T17:35:20.796Z,59.24
2023-02-26T17:37:48.215Z,59.59
2023-02-26T17:40:26.233Z,59.01
2023-02-26T17:42:53.776Z,58.77
2023-02-26T17:45:21.404Z,58.77
2023-02-26T17:47:50.219Z,58.76
2023-02-26T17:50:44.552Z,58.47
2023-02-26T17:53:11.961Z,58.57
2023-02-26T17:55:39.963Z,58.03
2023-02-26T17:58:13.842Z,58.20
2023-02-26T18:00:43.087Z,58.35
2023-02-26T18:03:11.355Z,57.68
2023-02-26T18:05:41.326Z,57.71
2023-02-26T18:08:28.324Z,56.82
2023-02-26T18:10:56.124Z,57.96
2023-02-26T18:13:23.981Z,57.49
2023-02-26T18:15:52.639Z,57.12
2023-02-26T18:18:21.886Z,57.42
2023-02-26T18:20:49.568Z,57.40
2023-02-26T18:23:20.677Z,56.83
2023-02-26T18:25:51.258Z,57.11
2023-02-26T18:28:26.777Z,56.79
2023-02-26T18:30:55.185Z,57.08
2023-02-26T18:33:23.474Z,56.60
2023-02-26T18:35:56.175Z,56.58
2023-02-26T18:38:28.259Z,56.62
2023-02-26T18:40:56.286Z,56.86
2023-02-26T18:43:23.909Z,56.80
2023-02-26T18:45:54.850Z,56.57
2023-02-26T18:48:25.151Z,56.58
2023-02-26T18:50:53.940Z,56.76
2023-02-26T18:53:23.659Z,56.58
2023-02-26T18:55:53.229Z,56.33
2023-02-26T18:58:22.052Z,56.90
2023-02-26T19:00:52.137Z,56.94
2023-02-26T19:03:19.932Z,56.46
2023-02-26T19:05:55.192Z,56.37
2023-02-26T19:08:22.385Z,56.51
2023-02-26T19:10:49.493Z,56.62
2023-02-26T19:13:18.661Z,56.55
2023-02-26T19:15:48.240Z,55.99
2023-02-26T19:18:18.371Z,56.23
2023-02-26T19:20:45.952Z,56.71
2023-02-26T19:23:13.228Z,56.35
2023-02-26T19:25:42.606Z,56.74
2023-02-26T19:28:15.436Z,56.63
2023-02-26T19:30:44.544Z,56.71
2023-02-26T19:33:12.059Z,56.19
2023-02-26T19:35:42.972Z,56.46
2023-02-26T19:38:10.562Z,56.89
2023-02-26T19:40:38.696Z,56.35
2023-02-26T19:43:10.473Z,56.81
2023-02-26T19:45:37.818Z,56.71
2023-02-26T19:48:13.530Z,56.48
2023-02-26T19:50:40.776Z,56.88
2023-02-26T19:53:07.887Z,56.86
2023-02-26T19:55:35.133Z,57.28
2023-02-26T19:58:02.356Z,56.94
2023-02-26T20:00:29.649Z,56.41
2023-02-26T20:02:59.521Z,57.21
2023-02-26T20:05:26.913Z,56.92
2023-02-26T20:07:54.510Z,56.68
2023-02-26T20:10:23.667Z,56.69
